sensor_id;sensor_type;location;lat;lon;timestamp;P1;durP1;ratioP1;P2;durP2;ratioP2
63492;SDS011;49638;47.526;10.028;2023-09-30T00:01:24;28.48;;;9.13;;
63492;SDS011;49638;47.526;10.028;2023-09-30T00:04:24;26.95;;;8.52;;
63492;SDS011;49638;47.526;10.028;2023-09-30T00:07:25;22.73;;;8.13;;
63492;SDS011;49638;47.526;10.028;2023-09-30T00:10:26;22.50;;;7.60;;
63492;SDS011;49638;47.526;10.028;2023-09-30T00:13:26;25.80;;;8.85;;
63492;SDS011;49638;47.526;10.028;2023-09-30T00:16:27;23.15;;;8.52;;
63492;SDS011;49638;47.526;10.028;2023-09-30T00:19:27;25.67;;;9.05;;
63492;SDS011;49638;47.526;10.028;2023-09-30T00:22:27;23.75;;;8.93;;
63492;SDS011;49638;47.526;10.028;2023-09-30T00:25:28;24.70;;;8.52;;
63492;SDS011;49638;47.526;10.028;2023-09-30T00:28:28;25.17;;;9.75;;
63492;SDS011;49638;47.526;10.028;2023-09-30T00:31:29;25.85;;;8.35;;
63492;SDS011;49638;47.526;10.028;2023-09-30T00:34:31;22.77;;;8.80;;
63492;SDS011;49638;47.526;10.028;2023-09-30T00:40:33;26.83;;;9.43;;
63492;SDS011;49638;47.526;10.028;2023-09-30T00:43:35;21.08;;;8.00;;
63492;SDS011;49638;47.526;10.028;2023-09-30T00:46:36;19.40;;;8.20;;
63492;SDS011;49638;47.526;10.028;2023-09-30T00:49:38;25.52;;;8.40;;
63492;SDS011;49638;47.526;10.028;2023-09-30T00:52:38;22.23;;;8.18;;
63492;SDS011;49638;47.526;10.028;2023-09-30T00:55:39;26.02;;;8.88;;
63492;SDS011;49638;47.526;10.028;2023-09-30T00:58:39;21.33;;;7.28;;
63492;SDS011;49638;47.526;10.028;2023-09-30T01:01:41;25.73;;;8.88;;
63492;SDS011;49638;47.526;10.028;2023-09-30T01:04:44;24.98;;;8.07;;
63492;SDS011;49638;47.526;10.028;2023-09-30T01:07:44;26.50;;;7.63;;
63492;SDS011;49638;47.526;10.028;2023-09-30T01:10:44;24.90;;;8.35;;
63492;SDS011;49638;47.526;10.028;2023-09-30T01:13:45;23.40;;;8.25;;
63492;SDS011;49638;47.526;10.028;2023-09-30T01:16:47;23.65;;;8.30;;
63492;SDS011;49638;47.526;10.028;2023-09-30T01:19:47;26.73;;;7.60;;
63492;SDS011;49638;47.526;10.028;2023-09-30T01:22:49;25.52;;;8.40;;
63492;SDS011;49638;47.526;10.028;2023-09-30T01:25:50;24.27;;;8.38;;
63492;SDS011;49638;47.526;10.028;2023-09-30T01:28:50;24.20;;;8.90;;
63492;SDS011;49638;47.526;10.028;2023-09-30T01:31:51;26.40;;;8.43;;
63492;SDS011;49638;47.526;10.028;2023-09-30T01:34:51;23.27;;;8.77;;
63492;SDS011;49638;47.526;10.028;2023-09-30T01:37:51;21.33;;;7.57;;
63492;SDS011;49638;47.526;10.028;2023-09-30T01:40:52;19.42;;;7.53;;
63492;SDS011;49638;47.526;10.028;2023-09-30T01:43:54;24.73;;;8.23;;
63492;SDS011;49638;47.526;10.028;2023-09-30T01:46:54;21.95;;;8.57;;
63492;SDS011;49638;47.526;10.028;2023-09-30T01:49:54;25.25;;;8.82;;
63492;SDS011;49638;47.526;10.028;2023-09-30T01:52:55;24.10;;;8.48;;
63492;SDS011;49638;47.526;10.028;2023-09-30T01:55:55;23.33;;;9.02;;
63492;SDS011;49638;47.526;10.028;2023-09-30T01:58:55;23.33;;;8.25;;
63492;SDS011;49638;47.526;10.028;2023-09-30T02:01:55;22.70;;;8.55;;
63492;SDS011;49638;47.526;10.028;2023-09-30T02:04:56;22.45;;;8.63;;
63492;SDS011;49638;47.526;10.028;2023-09-30T02:07:57;23.63;;;8.27;;
63492;SDS011;49638;47.526;10.028;2023-09-30T02:10:57;23.52;;;8.27;;
63492;SDS011;49638;47.526;10.028;2023-09-30T02:13:57;23.98;;;9.00;;
63492;SDS011;49638;47.526;10.028;2023-09-30T02:16:58;20.27;;;7.55;;
63492;SDS011;49638;47.526;10.028;2023-09-30T02:19:58;23.73;;;8.27;;
63492;SDS011;49638;47.526;10.028;2023-09-30T02:22:58;20.17;;;8.00;;
63492;SDS011;49638;47.526;10.028;2023-09-30T02:25:59;23.13;;;8.32;;
63492;SDS011;49638;47.526;10.028;2023-09-30T02:28:59;20.92;;;7.85;;
63492;SDS011;49638;47.526;10.028;2023-09-30T02:32:00;27.27;;;9.07;;
63492;SDS011;49638;47.526;10.028;2023-09-30T02:35:00;22.33;;;7.47;;
63492;SDS011;49638;47.526;10.028;2023-09-30T02:38:00;19.95;;;7.30;;
63492;SDS011;49638;47.526;10.028;2023-09-30T02:41:01;23.08;;;7.65;;
63492;SDS011;49638;47.526;10.028;2023-09-30T02:44:03;20.30;;;8.05;;
63492;SDS011;49638;47.526;10.028;2023-09-30T02:47:03;21.33;;;7.75;;
63492;SDS011;49638;47.526;10.028;2023-09-30T02:50:05;19.27;;;7.53;;
63492;SDS011;49638;47.526;10.028;2023-09-30T02:53:08;23.15;;;7.68;;
63492;SDS011;49638;47.526;10.028;2023-09-30T02:56:08;19.50;;;7.32;;
63492;SDS011;49638;47.526;10.028;2023-09-30T02:59:10;19.55;;;7.30;;
63492;SDS011;49638;47.526;10.028;2023-09-30T03:02:11;20.73;;;7.53;;
63492;SDS011;49638;47.526;10.028;2023-09-30T03:05:11;18.30;;;6.70;;
63492;SDS011;49638;47.526;10.028;2023-09-30T03:08:11;21.08;;;7.55;;
63492;SDS011;49638;47.526;10.028;2023-09-30T03:11:12;18.85;;;6.88;;
63492;SDS011;49638;47.526;10.028;2023-09-30T03:14:13;21.45;;;7.78;;
63492;SDS011;49638;47.526;10.028;2023-09-30T03:17:13;18.40;;;6.72;;
63492;SDS011;49638;47.526;10.028;2023-09-30T03:20:13;16.65;;;7.40;;
63492;SDS011;49638;47.526;10.028;2023-09-30T03:23:14;19.85;;;7.00;;
63492;SDS011;49638;47.526;10.028;2023-09-30T03:26:15;21.38;;;7.47;;
63492;SDS011;49638;47.526;10.028;2023-09-30T03:29:15;19.83;;;7.30;;
63492;SDS011;49638;47.526;10.028;2023-09-30T03:32:16;19.02;;;6.70;;
63492;SDS011;49638;47.526;10.028;2023-09-30T03:35:16;18.15;;;7.15;;
63492;SDS011;49638;47.526;10.028;2023-09-30T03:38:19;20.38;;;7.38;;
63492;SDS011;49638;47.526;10.028;2023-09-30T03:41:20;17.70;;;6.43;;
63492;SDS011;49638;47.526;10.028;2023-09-30T03:44:20;17.83;;;6.68;;
63492;SDS011;49638;47.526;10.028;2023-09-30T03:47:20;18.70;;;6.30;;
63492;SDS011;49638;47.526;10.028;2023-09-30T03:50:21;18.80;;;7.05;;
63492;SDS011;49638;47.526;10.028;2023-09-30T03:53:23;19.90;;;6.55;;
63492;SDS011;49638;47.526;10.028;2023-09-30T03:56:26;19.95;;;6.57;;
63492;SDS011;49638;47.526;10.028;2023-09-30T03:59:26;22.30;;;7.20;;
63492;SDS011;49638;47.526;10.028;2023-09-30T04:02:27;22.08;;;6.53;;
63492;SDS011;49638;47.526;10.028;2023-09-30T04:05:28;19.67;;;6.20;;
63492;SDS011;49638;47.526;10.028;2023-09-30T04:08:36;19.17;;;6.80;;
63492;SDS011;49638;47.526;10.028;2023-09-30T04:11:36;17.63;;;6.60;;
63492;SDS011;49638;47.526;10.028;2023-09-30T04:14:37;20.25;;;6.32;;
63492;SDS011;49638;47.526;10.028;2023-09-30T04:17:38;16.90;;;5.95;;
63492;SDS011;49638;47.526;10.028;2023-09-30T04:20:38;18.48;;;6.50;;
63492;SDS011;49638;47.526;10.028;2023-09-30T04:23:39;15.95;;;6.18;;
63492;SDS011;49638;47.526;10.028;2023-09-30T04:26:41;19.23;;;6.20;;
63492;SDS011;49638;47.526;10.028;2023-09-30T04:29:42;17.95;;;6.05;;
63492;SDS011;49638;47.526;10.028;2023-09-30T04:32:42;14.88;;;5.90;;
63492;SDS011;49638;47.526;10.028;2023-09-30T04:35:43;17.65;;;6.40;;
63492;SDS011;49638;47.526;10.028;2023-09-30T04:38:44;17.75;;;6.15;;
63492;SDS011;49638;47.526;10.028;2023-09-30T04:41:45;16.55;;;5.90;;
63492;SDS011;49638;47.526;10.028;2023-09-30T04:44:47;15.98;;;5.78;;
63492;SDS011;49638;47.526;10.028;2023-09-30T04:47:47;15.40;;;5.78;;
63492;SDS011;49638;47.526;10.028;2023-09-30T04:50:49;14.38;;;5.95;;
63492;SDS011;49638;47.526;10.028;2023-09-30T04:53:51;19.63;;;6.25;;
63492;SDS011;49638;47.526;10.028;2023-09-30T04:56:51;15.40;;;5.72;;
63492;SDS011;49638;47.526;10.028;2023-09-30T04:59:51;15.48;;;5.45;;
63492;SDS011;49638;47.526;10.028;2023-09-30T05:02:52;17.33;;;5.90;;
63492;SDS011;49638;47.526;10.028;2023-09-30T05:05:52;15.02;;;5.15;;
63492;SDS011;49638;47.526;10.028;2023-09-30T05:11:56;15.67;;;5.83;;
63492;SDS011;49638;47.526;10.028;2023-09-30T05:14:57;19.42;;;6.38;;
63492;SDS011;49638;47.526;10.028;2023-09-30T05:17:57;16.13;;;6.25;;
63492;SDS011;49638;47.526;10.028;2023-09-30T05:20:57;22.10;;;6.38;;
63492;SDS011;49638;47.526;10.028;2023-09-30T05:23:57;17.20;;;5.70;;
63492;SDS011;49638;47.526;10.028;2023-09-30T05:26:58;17.48;;;5.40;;
63492;SDS011;49638;47.526;10.028;2023-09-30T05:29:59;16.38;;;5.63;;
63492;SDS011;49638;47.526;10.028;2023-09-30T05:33:00;16.17;;;6.03;;
63492;SDS011;49638;47.526;10.028;2023-09-30T05:36:00;16.35;;;5.60;;
63492;SDS011;49638;47.526;10.028;2023-09-30T05:39:02;21.42;;;6.70;;
63492;SDS011;49638;47.526;10.028;2023-09-30T05:42:04;12.18;;;4.65;;
63492;SDS011;49638;47.526;10.028;2023-09-30T05:45:06;19.27;;;6.00;;
63492;SDS011;49638;47.526;10.028;2023-09-30T05:48:08;21.02;;;6.32;;
63492;SDS011;49638;47.526;10.028;2023-09-30T05:51:10;16.08;;;6.13;;
63492;SDS011;49638;47.526;10.028;2023-09-30T05:54:14;17.27;;;5.82;;
63492;SDS011;49638;47.526;10.028;2023-09-30T05:57:15;15.82;;;5.97;;
63492;SDS011;49638;47.526;10.028;2023-09-30T06:00:15;14.82;;;5.70;;
63492;SDS011;49638;47.526;10.028;2023-09-30T06:03:28;17.60;;;5.72;;
63492;SDS011;49638;47.526;10.028;2023-09-30T06:06:29;15.07;;;5.78;;
63492;SDS011;49638;47.526;10.028;2023-09-30T06:09:30;16.70;;;5.80;;
63492;SDS011;49638;47.526;10.028;2023-09-30T06:12:30;17.00;;;5.78;;
63492;SDS011;49638;47.526;10.028;2023-09-30T06:15:30;18.23;;;5.95;;
63492;SDS011;49638;47.526;10.028;2023-09-30T06:18:31;19.25;;;5.97;;
63492;SDS011;49638;47.526;10.028;2023-09-30T06:21:32;16.23;;;5.50;;
63492;SDS011;49638;47.526;10.028;2023-09-30T06:24:34;20.48;;;5.97;;
63492;SDS011;49638;47.526;10.028;2023-09-30T06:27:35;16.33;;;6.28;;
63492;SDS011;49638;47.526;10.028;2023-09-30T06:30:35;17.55;;;5.97;;
63492;SDS011;49638;47.526;10.028;2023-09-30T06:33:36;18.98;;;6.35;;
63492;SDS011;49638;47.526;10.028;2023-09-30T06:36:38;17.40;;;6.07;;
63492;SDS011;49638;47.526;10.028;2023-09-30T06:39:38;19.05;;;6.22;;
63492;SDS011;49638;47.526;10.028;2023-09-30T06:42:39;17.85;;;6.00;;
63492;SDS011;49638;47.526;10.028;2023-09-30T06:45:42;19.02;;;6.10;;
63492;SDS011;49638;47.526;10.028;2023-09-30T06:48:44;16.02;;;6.57;;
63492;SDS011;49638;47.526;10.028;2023-09-30T06:51:44;15.70;;;6.13;;
63492;SDS011;49638;47.526;10.028;2023-09-30T06:54:45;19.50;;;6.22;;
63492;SDS011;49638;47.526;10.028;2023-09-30T06:57:45;19.98;;;6.88;;
63492;SDS011;49638;47.526;10.028;2023-09-30T07:00:46;15.52;;;5.97;;
63492;SDS011;49638;47.526;10.028;2023-09-30T07:03:49;19.08;;;6.10;;
63492;SDS011;49638;47.526;10.028;2023-09-30T07:06:50;17.50;;;6.35;;
63492;SDS011;49638;47.526;10.028;2023-09-30T07:09:50;18.27;;;7.38;;
63492;SDS011;49638;47.526;10.028;2023-09-30T07:12:50;21.75;;;7.53;;
63492;SDS011;49638;47.526;10.028;2023-09-30T07:15:51;21.65;;;7.38;;
63492;SDS011;49638;47.526;10.028;2023-09-30T07:18:51;19.75;;;6.80;;
63492;SDS011;49638;47.526;10.028;2023-09-30T07:21:51;22.30;;;6.97;;
63492;SDS011;49638;47.526;10.028;2023-09-30T07:24:51;18.15;;;6.25;;
63492;SDS011;49638;47.526;10.028;2023-09-30T07:27:52;18.98;;;7.07;;
63492;SDS011;49638;47.526;10.028;2023-09-30T07:30:53;18.67;;;6.88;;
63492;SDS011;49638;47.526;10.028;2023-09-30T07:33:54;16.55;;;6.70;;
63492;SDS011;49638;47.526;10.028;2023-09-30T07:36:54;19.70;;;7.32;;
63492;SDS011;49638;47.526;10.028;2023-09-30T07:39:55;21.23;;;7.82;;
63492;SDS011;49638;47.526;10.028;2023-09-30T07:42:56;22.13;;;7.28;;
63492;SDS011;49638;47.526;10.028;2023-09-30T07:45:56;18.50;;;7.47;;
63492;SDS011;49638;47.526;10.028;2023-09-30T07:48:56;21.00;;;7.32;;
63492;SDS011;49638;47.526;10.028;2023-09-30T07:51:58;26.63;;;8.20;;
63492;SDS011;49638;47.526;10.028;2023-09-30T07:54:59;20.60;;;7.28;;
63492;SDS011;49638;47.526;10.028;2023-09-30T07:57:59;23.33;;;7.85;;
63492;SDS011;49638;47.526;10.028;2023-09-30T08:01:00;22.33;;;7.18;;
63492;SDS011;49638;47.526;10.028;2023-09-30T08:04:04;18.77;;;6.75;;
63492;SDS011;49638;47.526;10.028;2023-09-30T08:07:04;22.63;;;7.00;;
63492;SDS011;49638;47.526;10.028;2023-09-30T08:10:05;20.10;;;7.70;;
63492;SDS011;49638;47.526;10.028;2023-09-30T08:13:06;20.75;;;7.75;;
63492;SDS011;49638;47.526;10.028;2023-09-30T08:16:07;25.40;;;7.75;;
63492;SDS011;49638;47.526;10.028;2023-09-30T08:19:07;18.88;;;7.20;;
63492;SDS011;49638;47.526;10.028;2023-09-30T08:22:07;22.10;;;7.43;;
63492;SDS011;49638;47.526;10.028;2023-09-30T08:25:08;21.15;;;7.35;;
63492;SDS011;49638;47.526;10.028;2023-09-30T08:28:08;20.50;;;6.95;;
63492;SDS011;49638;47.526;10.028;2023-09-30T08:31:09;20.45;;;7.07;;
63492;SDS011;49638;47.526;10.028;2023-09-30T08:34:09;21.27;;;7.00;;
63492;SDS011;49638;47.526;10.028;2023-09-30T08:37:10;19.05;;;7.05;;
63492;SDS011;49638;47.526;10.028;2023-09-30T08:40:10;18.20;;;6.78;;
63492;SDS011;49638;47.526;10.028;2023-09-30T08:43:11;20.02;;;7.30;;
63492;SDS011;49638;47.526;10.028;2023-09-30T08:46:12;22.17;;;7.22;;
63492;SDS011;49638;47.526;10.028;2023-09-30T08:49:14;21.63;;;7.10;;
63492;SDS011;49638;47.526;10.028;2023-09-30T08:52:15;18.75;;;6.75;;
63492;SDS011;49638;47.526;10.028;2023-09-30T08:55:17;23.75;;;7.22;;
63492;SDS011;49638;47.526;10.028;2023-09-30T08:58:17;20.60;;;7.03;;
63492;SDS011;49638;47.526;10.028;2023-09-30T09:01:19;21.52;;;7.72;;
63492;SDS011;49638;47.526;10.028;2023-09-30T09:04:19;19.05;;;6.20;;
63492;SDS011;49638;47.526;10.028;2023-09-30T09:07:20;20.23;;;6.78;;
63492;SDS011;49638;47.526;10.028;2023-09-30T09:10:20;22.35;;;7.22;;
63492;SDS011;49638;47.526;10.028;2023-09-30T09:13:20;18.50;;;7.30;;
63492;SDS011;49638;47.526;10.028;2023-09-30T09:16:21;21.58;;;8.02;;
63492;SDS011;49638;47.526;10.028;2023-09-30T09:19:23;18.30;;;7.43;;
63492;SDS011;49638;47.526;10.028;2023-09-30T09:22:23;19.52;;;7.30;;
63492;SDS011;49638;47.526;10.028;2023-09-30T09:25:24;20.70;;;7.13;;
63492;SDS011;49638;47.526;10.028;2023-09-30T09:28:33;19.13;;;7.05;;
63492;SDS011;49638;47.526;10.028;2023-09-30T09:31:34;19.15;;;7.20;;
63492;SDS011;49638;47.526;10.028;2023-09-30T09:34:36;20.77;;;6.97;;
63492;SDS011;49638;47.526;10.028;2023-09-30T09:37:36;19.63;;;7.13;;
63492;SDS011;49638;47.526;10.028;2023-09-30T09:40:37;18.70;;;6.85;;
63492;SDS011;49638;47.526;10.028;2023-09-30T09:43:41;19.42;;;6.95;;
63492;SDS011;49638;47.526;10.028;2023-09-30T09:46:42;23.48;;;8.40;;
63492;SDS011;49638;47.526;10.028;2023-09-30T09:49:45;20.92;;;7.32;;
63492;SDS011;49638;47.526;10.028;2023-09-30T09:52:47;17.42;;;7.28;;
63492;SDS011;49638;47.526;10.028;2023-09-30T09:55:50;19.55;;;7.50;;
63492;SDS011;49638;47.526;10.028;2023-09-30T09:58:51;22.77;;;7.53;;
63492;SDS011;49638;47.526;10.028;2023-09-30T10:01:52;19.85;;;7.18;;
63492;SDS011;49638;47.526;10.028;2023-09-30T10:04:52;17.95;;;7.50;;
63492;SDS011;49638;47.526;10.028;2023-09-30T10:07:57;16.45;;;7.38;;
63492;SDS011;49638;47.526;10.028;2023-09-30T10:11:03;22.92;;;7.93;;
63492;SDS011;49638;47.526;10.028;2023-09-30T10:14:04;21.52;;;7.88;;
63492;SDS011;49638;47.526;10.028;2023-09-30T10:17:04;19.58;;;7.50;;
63492;SDS011;49638;47.526;10.028;2023-09-30T10:20:05;20.52;;;7.53;;
63492;SDS011;49638;47.526;10.028;2023-09-30T10:26:22;23.90;;;7.50;;
63492;SDS011;49638;47.526;10.028;2023-09-30T10:29:23;21.98;;;8.93;;
63492;SDS011;49638;47.526;10.028;2023-09-30T10:35:52;26.25;;;9.70;;
63492;SDS011;49638;47.526;10.028;2023-09-30T10:38:53;25.33;;;9.18;;
63492;SDS011;49638;47.526;10.028;2023-09-30T10:41:54;25.42;;;9.52;;
63492;SDS011;49638;47.526;10.028;2023-09-30T10:44:54;22.60;;;8.07;;
63492;SDS011;49638;47.526;10.028;2023-09-30T10:47:54;22.77;;;8.52;;
63492;SDS011;49638;47.526;10.028;2023-09-30T10:50:55;25.02;;;8.60;;
63492;SDS011;49638;47.526;10.028;2023-09-30T10:53:58;20.85;;;7.88;;
63492;SDS011;49638;47.526;10.028;2023-09-30T10:57:00;20.10;;;7.95;;
63492;SDS011;49638;47.526;10.028;2023-09-30T11:00:07;24.50;;;8.10;;
63492;SDS011;49638;47.526;10.028;2023-09-30T11:03:10;26.58;;;8.85;;
63492;SDS011;49638;47.526;10.028;2023-09-30T11:06:15;26.33;;;9.10;;
63492;SDS011;49638;47.526;10.028;2023-09-30T11:09:20;24.17;;;8.85;;
63492;SDS011;49638;47.526;10.028;2023-09-30T11:12:22;24.75;;;8.63;;
63492;SDS011;49638;47.526;10.028;2023-09-30T11:15:22;23.45;;;8.80;;
63492;SDS011;49638;47.526;10.028;2023-09-30T11:18:23;23.42;;;8.57;;
63492;SDS011;49638;47.526;10.028;2023-09-30T11:21:23;24.30;;;8.55;;
63492;SDS011;49638;47.526;10.028;2023-09-30T11:24:23;20.98;;;8.18;;
63492;SDS011;49638;47.526;10.028;2023-09-30T11:27:24;20.85;;;8.25;;
63492;SDS011;49638;47.526;10.028;2023-09-30T11:30:24;22.00;;;8.70;;
63492;SDS011;49638;47.526;10.028;2023-09-30T11:33:26;25.85;;;8.82;;
63492;SDS011;49638;47.526;10.028;2023-09-30T11:36:27;26.05;;;8.45;;
63492;SDS011;49638;47.526;10.028;2023-09-30T11:39:30;19.73;;;7.75;;
63492;SDS011;49638;47.526;10.028;2023-09-30T11:42:31;22.95;;;8.52;;
63492;SDS011;49638;47.526;10.028;2023-09-30T11:45:31;23.73;;;8.60;;
63492;SDS011;49638;47.526;10.028;2023-09-30T11:48:31;21.42;;;8.63;;
63492;SDS011;49638;47.526;10.028;2023-09-30T11:51:42;24.42;;;8.98;;
63492;SDS011;49638;47.526;10.028;2023-09-30T11:57:46;20.52;;;8.25;;
63492;SDS011;49638;47.526;10.028;2023-09-30T12:00:47;22.83;;;8.70;;
63492;SDS011;49638;47.526;10.028;2023-09-30T12:03:51;24.08;;;9.20;;
63492;SDS011;49638;47.526;10.028;2023-09-30T12:06:51;21.88;;;8.20;;
63492;SDS011;49638;47.526;10.028;2023-09-30T12:09:52;23.50;;;8.75;;
63492;SDS011;49638;47.526;10.028;2023-09-30T12:12:53;23.00;;;9.00;;
63492;SDS011;49638;47.526;10.028;2023-09-30T12:15:53;22.25;;;8.50;;
63492;SDS011;49638;47.526;10.028;2023-09-30T12:18:53;21.70;;;8.45;;
63492;SDS011;49638;47.526;10.028;2023-09-30T12:21:53;22.33;;;8.48;;
63492;SDS011;49638;47.526;10.028;2023-09-30T12:24:54;23.90;;;7.97;;
63492;SDS011;49638;47.526;10.028;2023-09-30T12:27:54;24.27;;;7.60;;
63492;SDS011;49638;47.526;10.028;2023-09-30T12:30:55;21.85;;;7.78;;
63492;SDS011;49638;47.526;10.028;2023-09-30T12:33:56;20.90;;;8.23;;
63492;SDS011;49638;47.526;10.028;2023-09-30T12:36:56;20.80;;;7.53;;
63492;SDS011;49638;47.526;10.028;2023-09-30T12:39:56;19.42;;;7.93;;
63492;SDS011;49638;47.526;10.028;2023-09-30T12:42:57;20.30;;;7.10;;
63492;SDS011;49638;47.526;10.028;2023-09-30T12:45:57;20.23;;;7.50;;
63492;SDS011;49638;47.526;10.028;2023-09-30T12:48:59;22.13;;;7.85;;
63492;SDS011;49638;47.526;10.028;2023-09-30T12:51:59;20.58;;;7.68;;
63492;SDS011;49638;47.526;10.028;2023-09-30T12:55:01;20.45;;;8.23;;
63492;SDS011;49638;47.526;10.028;2023-09-30T12:58:02;21.00;;;8.38;;
63492;SDS011;49638;47.526;10.028;2023-09-30T13:01:02;19.73;;;7.68;;
63492;SDS011;49638;47.526;10.028;2023-09-30T13:04:02;17.48;;;7.63;;
63492;SDS011;49638;47.526;10.028;2023-09-30T13:07:03;22.63;;;7.97;;
63492;SDS011;49638;47.526;10.028;2023-09-30T13:10:03;21.95;;;7.93;;
63492;SDS011;49638;47.526;10.028;2023-09-30T13:13:05;21.35;;;8.00;;
63492;SDS011;49638;47.526;10.028;2023-09-30T13:16:05;20.27;;;7.90;;
63492;SDS011;49638;47.526;10.028;2023-09-30T13:19:07;22.63;;;8.02;;
63492;SDS011;49638;47.526;10.028;2023-09-30T13:22:07;22.30;;;8.45;;
63492;SDS011;49638;47.526;10.028;2023-09-30T13:25:08;25.25;;;8.45;;
63492;SDS011;49638;47.526;10.028;2023-09-30T13:28:08;19.75;;;8.02;;
63492;SDS011;49638;47.526;10.028;2023-09-30T13:31:08;22.63;;;8.52;;
63492;SDS011;49638;47.526;10.028;2023-09-30T13:34:08;19.25;;;7.97;;
63492;SDS011;49638;47.526;10.028;2023-09-30T13:37:09;22.90;;;7.97;;
63492;SDS011;49638;47.526;10.028;2023-09-30T13:40:10;21.95;;;7.78;;
63492;SDS011;49638;47.526;10.028;2023-09-30T13:43:13;20.55;;;7.50;;
63492;SDS011;49638;47.526;10.028;2023-09-30T13:46:13;21.65;;;7.97;;
63492;SDS011;49638;47.526;10.028;2023-09-30T13:49:13;19.23;;;7.82;;
63492;SDS011;49638;47.526;10.028;2023-09-30T13:52:14;24.77;;;8.55;;
63492;SDS011;49638;47.526;10.028;2023-09-30T13:55:14;22.45;;;7.53;;
63492;SDS011;49638;47.526;10.028;2023-09-30T13:58:19;19.50;;;8.43;;
63492;SDS011;49638;47.526;10.028;2023-09-30T14:01:19;19.80;;;8.02;;
63492;SDS011;49638;47.526;10.028;2023-09-30T14:04:20;19.50;;;8.07;;
63492;SDS011;49638;47.526;10.028;2023-09-30T14:07:20;20.63;;;8.02;;
63492;SDS011;49638;47.526;10.028;2023-09-30T14:10:20;20.98;;;7.97;;
63492;SDS011;49638;47.526;10.028;2023-09-30T14:13:21;23.10;;;8.95;;
63492;SDS011;49638;47.526;10.028;2023-09-30T14:16:21;21.30;;;7.85;;
63492;SDS011;49638;47.526;10.028;2023-09-30T14:19:21;21.52;;;8.55;;
63492;SDS011;49638;47.526;10.028;2023-09-30T14:22:22;18.77;;;7.40;;
63492;SDS011;49638;47.526;10.028;2023-09-30T14:25:22;21.35;;;8.43;;
63492;SDS011;49638;47.526;10.028;2023-09-30T14:28:22;19.75;;;7.95;;
63492;SDS011;49638;47.526;10.028;2023-09-30T14:31:23;23.65;;;8.20;;
63492;SDS011;49638;47.526;10.028;2023-09-30T14:34:23;26.70;;;8.00;;
63492;SDS011;49638;47.526;10.028;2023-09-30T14:37:24;23.52;;;9.00;;
63492;SDS011;49638;47.526;10.028;2023-09-30T14:40:24;24.63;;;8.93;;
63492;SDS011;49638;47.526;10.028;2023-09-30T14:43:24;25.73;;;8.32;;
63492;SDS011;49638;47.526;10.028;2023-09-30T14:46:25;21.60;;;8.55;;
63492;SDS011;49638;47.526;10.028;2023-09-30T14:49:25;21.38;;;8.05;;
63492;SDS011;49638;47.526;10.028;2023-09-30T14:52:25;23.20;;;8.35;;
63492;SDS011;49638;47.526;10.028;2023-09-30T14:55:25;20.65;;;7.72;;
63492;SDS011;49638;47.526;10.028;2023-09-30T14:58:26;23.08;;;8.32;;
63492;SDS011;49638;47.526;10.028;2023-09-30T15:01:26;23.98;;;8.43;;
63492;SDS011;49638;47.526;10.028;2023-09-30T15:04:27;25.05;;;8.45;;
63492;SDS011;49638;47.526;10.028;2023-09-30T15:07:27;21.40;;;8.40;;
63492;SDS011;49638;47.526;10.028;2023-09-30T15:10:28;21.17;;;8.73;;
63492;SDS011;49638;47.526;10.028;2023-09-30T15:13:29;25.38;;;8.82;;
63492;SDS011;49638;47.526;10.028;2023-09-30T15:16:30;21.73;;;8.90;;
63492;SDS011;49638;47.526;10.028;2023-09-30T15:19:31;22.30;;;8.48;;
63492;SDS011;49638;47.526;10.028;2023-09-30T15:22:32;24.60;;;9.18;;
63492;SDS011;49638;47.526;10.028;2023-09-30T15:25:32;21.83;;;8.57;;
63492;SDS011;49638;47.526;10.028;2023-09-30T15:28:33;23.70;;;9.15;;
63492;SDS011;49638;47.526;10.028;2023-09-30T15:31:33;25.63;;;8.88;;
63492;SDS011;49638;47.526;10.028;2023-09-30T15:34:36;21.60;;;8.18;;
63492;SDS011;49638;47.526;10.028;2023-09-30T15:37:40;25.10;;;9.10;;
63492;SDS011;49638;47.526;10.028;2023-09-30T15:40:50;27.55;;;10.10;;
63492;SDS011;49638;47.526;10.028;2023-09-30T15:43:52;21.77;;;8.95;;
63492;SDS011;49638;47.526;10.028;2023-09-30T15:46:53;26.88;;;9.40;;
63492;SDS011;49638;47.526;10.028;2023-09-30T15:49:53;25.85;;;9.05;;
63492;SDS011;49638;47.526;10.028;2023-09-30T15:52:53;27.60;;;8.85;;
63492;SDS011;49638;47.526;10.028;2023-09-30T15:55:53;29.40;;;9.57;;
63492;SDS011;49638;47.526;10.028;2023-09-30T15:58:54;26.73;;;9.15;;
63492;SDS011;49638;47.526;10.028;2023-09-30T16:01:54;23.02;;;8.68;;
63492;SDS011;49638;47.526;10.028;2023-09-30T16:04:54;26.58;;;9.25;;
63492;SDS011;49638;47.526;10.028;2023-09-30T16:07:55;22.17;;;8.63;;
63492;SDS011;49638;47.526;10.028;2023-09-30T16:10:55;24.25;;;9.15;;
63492;SDS011;49638;47.526;10.028;2023-09-30T16:13:55;23.38;;;8.82;;
63492;SDS011;49638;47.526;10.028;2023-09-30T16:16:56;26.38;;;9.35;;
63492;SDS011;49638;47.526;10.028;2023-09-30T16:19:56;24.55;;;9.50;;
63492;SDS011;49638;47.526;10.028;2023-09-30T16:22:57;27.13;;;10.70;;
63492;SDS011;49638;47.526;10.028;2023-09-30T16:25:58;31.20;;;12.00;;
63492;SDS011;49638;47.526;10.028;2023-09-30T16:29:00;26.80;;;9.55;;
63492;SDS011;49638;47.526;10.028;2023-09-30T16:32:00;26.75;;;9.40;;
63492;SDS011;49638;47.526;10.028;2023-09-30T16:35:00;23.42;;;9.05;;
63492;SDS011;49638;47.526;10.028;2023-09-30T16:38:02;26.55;;;10.02;;
63492;SDS011;49638;47.526;10.028;2023-09-30T16:41:03;24.70;;;8.93;;
63492;SDS011;49638;47.526;10.028;2023-09-30T16:44:04;28.45;;;9.63;;
63492;SDS011;49638;47.526;10.028;2023-09-30T16:47:05;25.17;;;10.80;;
63492;SDS011;49638;47.526;10.028;2023-09-30T16:50:05;23.17;;;9.50;;
63492;SDS011;49638;47.526;10.028;2023-09-30T16:53:06;28.15;;;9.85;;
63492;SDS011;49638;47.526;10.028;2023-09-30T16:56:06;25.88;;;9.60;;
63492;SDS011;49638;47.526;10.028;2023-09-30T16:59:06;27.80;;;9.15;;
63492;SDS011;49638;47.526;10.028;2023-09-30T17:02:07;21.13;;;8.70;;
63492;SDS011;49638;47.526;10.028;2023-09-30T17:05:08;23.73;;;9.55;;
63492;SDS011;49638;47.526;10.028;2023-09-30T17:08:08;20.58;;;8.02;;
63492;SDS011;49638;47.526;10.028;2023-09-30T17:11:09;25.83;;;9.23;;
63492;SDS011;49638;47.526;10.028;2023-09-30T17:14:10;26.35;;;9.43;;
63492;SDS011;49638;47.526;10.028;2023-09-30T17:17:11;23.25;;;8.70;;
63492;SDS011;49638;47.526;10.028;2023-09-30T17:20:12;22.85;;;8.75;;
63492;SDS011;49638;47.526;10.028;2023-09-30T17:23:13;24.00;;;9.20;;
63492;SDS011;49638;47.526;10.028;2023-09-30T17:26:14;23.90;;;8.65;;
63492;SDS011;49638;47.526;10.028;2023-09-30T17:29:14;23.60;;;9.20;;
63492;SDS011;49638;47.526;10.028;2023-09-30T17:32:15;24.40;;;9.25;;
63492;SDS011;49638;47.526;10.028;2023-09-30T17:35:18;22.15;;;8.25;;
63492;SDS011;49638;47.526;10.028;2023-09-30T17:38:18;23.58;;;8.55;;
63492;SDS011;49638;47.526;10.028;2023-09-30T17:41:19;25.17;;;9.73;;
63492;SDS011;49638;47.526;10.028;2023-09-30T17:44:19;27.15;;;10.98;;
63492;SDS011;49638;47.526;10.028;2023-09-30T17:47:19;26.95;;;10.50;;
63492;SDS011;49638;47.526;10.028;2023-09-30T17:50:20;28.02;;;12.13;;
63492;SDS011;49638;47.526;10.028;2023-09-30T17:53:20;26.95;;;11.30;;